createdAt,value
2023-03-29T00:01:35.441Z,3.80
2023-03-29T00:06:39.296Z,3.70
2023-03-29T00:11:42.406Z,4.10
2023-03-29T00:16:46.871Z,3.60
2023-03-29T00:21:50.308Z,3.80
2023-03-29T00:26:53.177Z,3.60
2023-03-29T00:31:56.080Z,3.50
2023-03-29T00:36:59.545Z,4.30
2023-03-29T00:42:02.711Z,4.20
2023-03-29T00:47:06.806Z,3.40
2023-03-29T00:52:09.636Z,3.80
2023-03-29T00:57:12.745Z,3.50
2023-03-29T01:02:15.725Z,3.80
2023-03-29T01:07:23.180Z,4.30
2023-03-29T01:12:30.306Z,4.20
2023-03-29T01:17:33.310Z,4.20
2023-03-29T01:23:27.742Z,4.10
2023-03-29T01:28:40.728Z,4.30
2023-03-29T01:33:51.005Z,4.60
2023-03-29T01:38:59.453Z,4.00
2023-03-29T01:44:06.627Z,4.40
2023-03-29T01:49:27.584Z,4.80
2023-03-29T01:54:44.563Z,4.20
2023-03-29T01:59:47.548Z,5.10
2023-03-29T02:04:53.699Z,4.80
2023-03-29T02:09:57.535Z,4.80
2023-03-29T02:15:04.640Z,5.00
2023-03-29T02:20:33.063Z,4.40
2023-03-29T02:25:38.022Z,4.40
2023-03-29T02:30:49.483Z,5.00
2023-03-29T02:36:10.230Z,4.50
2023-03-29T02:41:13.151Z,4.20
2023-03-29T02:46:16.609Z,4.50
2023-03-29T02:51:25.379Z,4.50
2023-03-29T02:56:28.289Z,4.40
2023-03-29T03:01:31.127Z,4.10
2023-03-29T03:06:34.083Z,4.40
2023-03-29T03:11:37.150Z,4.10
2023-03-29T03:16:40.420Z,4.10
2023-03-29T03:21:45.593Z,3.90
2023-03-29T03:26:48.471Z,4.50
2023-03-29T03:31:53.902Z,4.60
2023-03-29T03:36:57.238Z,4.00
2023-03-29T03:42:00.450Z,4.40
2023-03-29T03:47:05.316Z,4.50
2023-03-29T03:52:08.797Z,4.90
2023-03-29T03:57:12.501Z,4.90
2023-03-29T04:02:16.400Z,4.10
2023-03-29T04:07:19.428Z,4.50
2023-03-29T04:12:22.307Z,4.50
2023-03-29T04:17:25.260Z,4.40
2023-03-29T04:22:28.195Z,5.00
2023-03-29T04:27:31.628Z,4.90
2023-03-29T04:32:36.172Z,5.10
2023-03-29T04:37:40.435Z,4.80
2023-03-29T04:42:45.476Z,5.60
2023-03-29T04:47:48.342Z,4.90
2023-03-29T04:52:51.501Z,4.80
2023-03-29T04:57:56.103Z,5.20
2023-03-29T05:03:00.562Z,5.70
2023-03-29T05:08:03.914Z,6.10
2023-03-29T05:13:06.813Z,4.60
2023-03-29T05:18:09.721Z,5.10
2023-03-29T05:23:12.575Z,5.20
2023-03-29T05:28:16.460Z,5.30
2023-03-29T05:33:20.957Z,5.50
2023-03-29T05:38:24.054Z,5.20
2023-03-29T05:43:29.089Z,4.90
2023-03-29T05:48:32.716Z,5.50
2023-03-29T05:53:35.848Z,5.40
2023-03-29T05:58:39.391Z,4.70
2023-03-29T06:03:42.877Z,4.60
2023-03-29T06:08:46.449Z,4.70
2023-03-29T06:13:49.382Z,4.80
2023-03-29T06:18:53.443Z,4.60
2023-03-29T06:23:56.360Z,4.60
2023-03-29T06:28:59.638Z,4.00
2023-03-29T06:34:04.676Z,4.40
2023-03-29T06:39:08.185Z,4.60
2023-03-29T06:44:11.128Z,3.80
2023-03-29T06:49:13.960Z,4.80
2023-03-29T06:54:17.418Z,5.20
2023-03-29T06:59:20.711Z,4.80
2023-03-29T07:04:24.739Z,4.80
2023-03-29T07:09:31.768Z,4.50
2023-03-29T07:14:35.585Z,4.70
2023-03-29T07:19:38.508Z,4.70
2023-03-29T07:24:41.351Z,4.10
2023-03-29T07:29:44.608Z,4.10
2023-03-29T07:34:49.348Z,3.70
2023-03-29T07:39:52.386Z,4.10
2023-03-29T07:44:55.846Z,3.90
2023-03-29T07:49:59.591Z,4.30
2023-03-29T07:55:08.225Z,4.70
2023-03-29T08:00:16.534Z,4.30
2023-03-29T08:10:44.723Z,3.90
2023-03-29T08:15:48.851Z,4.00
2023-03-29T08:20:52.658Z,4.00
2023-03-29T08:25:55.763Z,4.40
2023-03-29T08:30:58.679Z,4.00
2023-03-29T08:36:02.146Z,3.00
2023-03-29T08:41:49.375Z,3.30
2023-03-29T08:47:36.931Z,2.80
2023-03-29T08:52:46.729Z,2.90
2023-03-29T08:57:51.811Z,3.20
2023-03-29T09:02:55.128Z,2.90
2023-03-29T09:07:58.207Z,2.70
2023-03-29T09:13:40.965Z,2.70
2023-03-29T09:19:21.845Z,1.90
2023-03-29T09:24:38.666Z,1.60
2023-03-29T09:30:15.436Z,1.60
2023-03-29T09:35:41.300Z,1.80
2023-03-29T09:40:56.705Z,1.90
2023-03-29T09:46:03.501Z,1.60
2023-03-29T09:51:07.745Z,2.00
2023-03-29T09:56:10.700Z,1.90
2023-03-29T10:01:17.410Z,1.40
2023-03-29T10:06:23.357Z,1.20
2023-03-29T10:11:37.100Z,2.10
2023-03-29T10:16:41.962Z,2.10
2023-03-29T10:21:47.146Z,1.90
2023-03-29T10:26:56.387Z,1.40
2023-03-29T10:31:59.315Z,2.00
2023-03-29T10:37:02.302Z,2.10
2023-03-29T10:42:05.757Z,1.80
2023-03-29T10:47:19.604Z,2.20
2023-03-29T10:52:23.113Z,2.10
2023-03-29T10:58:33.561Z,1.80
2023-03-29T11:04:07.965Z,2.10
2023-03-29T11:09:31.765Z,1.70
2023-03-29T11:15:19.013Z,1.90
2023-03-29T11:20:55.970Z,2.30
2023-03-29T11:26:11.446Z,1.70
2023-03-29T11:31:44.317Z,2.10
2023-03-29T11:36:59.331Z,1.80
2023-03-29T11:42:17.719Z,2.10
2023-03-29T11:47:22.647Z,1.80
2023-03-29T11:52:29.360Z,2.00
2023-03-29T11:57:53.944Z,1.90
2023-03-29T12:03:14.947Z,1.60
2023-03-29T12:09:30.812Z,1.70
2023-03-29T12:14:56.558Z,2.10
2023-03-29T12:20:23.562Z,2.10
2023-03-29T12:26:05.227Z,1.70
2023-03-29T12:31:46.941Z,1.70
2023-03-29T12:37:19.173Z,1.70
2023-03-29T12:42:23.129Z,2.10
2023-03-29T12:47:33.944Z,2.20
2023-03-29T12:52:36.964Z,2.00
2023-03-29T12:57:43.090Z,2.20
2023-03-29T13:02:46.197Z,2.60
2023-03-29T13:07:49.240Z,2.50
2023-03-29T13:12:52.769Z,2.10
2023-03-29T13:18:34.030Z,2.50
2023-03-29T13:24:05.857Z,2.30
2023-03-29T13:29:27.500Z,2.20
2023-03-29T13:34:43.214Z,2.00
2023-03-29T13:39:54.361Z,3.70
2023-03-29T13:45:15.547Z,1.60
2023-03-29T13:50:21.130Z,1.70
2023-03-29T13:55:33.652Z,1.20
2023-03-29T14:00:50.038Z,2.10
2023-03-29T14:06:00.049Z,1.30
2023-03-29T14:11:04.701Z,1.50
2023-03-29T14:16:10.416Z,1.20
2023-03-29T14:21:14.518Z,1.00
2023-03-29T14:26:24.097Z,1.20
2023-03-29T14:31:34.985Z,1.20
2023-03-29T14:36:38.376Z,1.20
2023-03-29T14:41:41.315Z,1.20
2023-03-29T14:46:44.290Z,1.50
2023-03-29T14:51:47.526Z,1.40
2023-03-29T14:56:50.512Z,1.20
2023-03-29T15:01:53.587Z,1.50
2023-03-29T15:06:56.511Z,1.50
2023-03-29T15:12:00.258Z,2.20
2023-03-29T15:17:24.223Z,1.70
2023-03-29T15:22:34.042Z,1.70
2023-03-29T15:27:44.358Z,2.00
2023-03-29T15:32:47.224Z,2.00
2023-03-29T15:37:52.398Z,2.30
2023-03-29T15:42:55.640Z,2.20
2023-03-29T15:48:01.983Z,2.50
2023-03-29T15:53:14.756Z,2.40
2023-03-29T15:58:22.839Z,2.70
2023-03-29T16:03:27.452Z,2.40
2023-03-29T16:08:30.370Z,2.10
2023-03-29T16:13:33.364Z,2.70
2023-03-29T16:18:36.698Z,2.90
2023-03-29T16:23:40.793Z,2.70
2023-03-29T16:28:43.817Z,3.00
2023-03-29T16:33:46.670Z,7.20
2023-03-29T16:38:49.605Z,4.70
2023-03-29T16:43:52.678Z,4.50
2023-03-29T16:48:57.900Z,3.50
2023-03-29T16:54:00.800Z,7.00
2023-03-29T16:59:03.782Z,6.10
2023-03-29T17:04:07.125Z,4.50
2023-03-29T17:09:10.102Z,3.70
2023-03-29T17:14:13.537Z,3.30
2023-03-29T17:19:16.582Z,3.90
2023-03-29T17:24:19.643Z,4.00
2023-03-29T17:29:22.558Z,3.90
2023-03-29T17:34:27.175Z,4.10
2023-03-29T17:39:30.801Z,3.80
2023-03-29T17:44:33.740Z,3.30
2023-03-29T17:49:36.586Z,3.50
2023-03-29T17:54:39.518Z,3.70
2023-03-29T17:59:42.569Z,3.00
2023-03-29T18:04:46.253Z,3.90
2023-03-29T18:09:50.711Z,3.80
2023-03-29T18:14:53.649Z,4.20
2023-03-29T18:19:57.318Z,5.00
2023-03-29T18:25:00.516Z,6.00
2023-03-29T18:30:04.552Z,6.00
2023-03-29T18:35:08.432Z,7.10
2023-03-29T18:40:12.201Z,7.40
2023-03-29T18:45:15.105Z,8.00
2023-03-29T18:50:18.081Z,8.60
2023-03-29T18:55:21.219Z,8.80
2023-03-29T19:00:24.445Z,9.60
2023-03-29T19:05:27.401Z,10.10
2023-03-29T19:10:30.336Z,10.40
2023-03-29T19:15:34.683Z,10.90
2023-03-29T19:20:38.433Z,11.30
2023-03-29T19:25:43.385Z,10.60
2023-03-29T19:30:46.517Z,12.10
2023-03-29T19:35:51.607Z,11.80
2023-03-29T19:40:54.756Z,13.00
2023-03-29T19:46:07.205Z,13.30
2023-03-29T19:51:10.105Z,13.30
2023-03-29T19:56:14.587Z,13.80
2023-03-29T20:01:21.043Z,14.20
2023-03-29T20:08:01.467Z,14.90
2023-03-29T20:13:06.714Z,15.70
2023-03-29T20:18:09.794Z,16.20
2023-03-29T20:23:13.157Z,16.70
2023-03-29T20:28:17.376Z,16.00
2023-03-29T20:33:21.007Z,15.80
2023-03-29T20:38:23.876Z,16.10
2023-03-29T20:43:27.174Z,16.60
2023-03-29T20:48:30.443Z,16.60
2023-03-29T20:53:34.429Z,17.30
2023-03-29T20:58:42.001Z,17.20
2023-03-29T21:03:45.368Z,17.80
2023-03-29T21:08:48.465Z,17.20
2023-03-29T21:13:52.990Z,17.80
2023-03-29T21:18:55.886Z,16.20
2023-03-29T21:23:58.775Z,15.30
2023-03-29T21:29:01.669Z,17.60
2023-03-29T21:34:04.489Z,17.00
2023-03-29T21:39:07.430Z,17.70
2023-03-29T21:44:10.423Z,17.70
2023-03-29T21:49:13.297Z,17.40
2023-03-29T21:54:16.195Z,18.50
2023-03-29T21:59:19.023Z,22.10
2023-03-29T22:04:35.297Z,22.10
2023-03-29T22:09:41.890Z,21.70
2023-03-29T22:14:44.689Z,21.50
2023-03-29T22:19:47.591Z,21.60
2023-03-29T22:24:54.789Z,21.30
2023-03-29T22:29:58.669Z,20.60
2023-03-29T22:35:01.619Z,19.60
2023-03-29T22:40:05.393Z,18.60
2023-03-29T22:45:09.107Z,18.10
2023-03-29T22:50:12.349Z,17.20
2023-03-29T22:55:15.499Z,17.30
2023-03-29T23:00:19.274Z,17.30
2023-03-29T23:05:22.291Z,17.40
2023-03-29T23:10:30.426Z,18.00
2023-03-29T23:15:34.058Z,18.50
2023-03-29T23:20:36.973Z,17.30
2023-03-29T23:25:40.013Z,17.20
2023-03-29T23:30:43.024Z,17.20
2023-03-29T23:35:46.743Z,15.70
2023-03-29T23:40:59.162Z,17.10
2023-03-29T23:46:05.130Z,16.70
2023-03-29T23:51:08.372Z,15.30
2023-03-29T23:56:11.921Z,15.00
